Time;durP1;ratioP1;P1;durP2;ratioP2;P2;SDS_P1;SDS_P2;PMS_P1;PMS_P2;Temp;Humidity;BMP_temperature;BMP_pressure;BME280_temperature;BME280_humidity;BME280_pressure;Samples;Min_cycle;Max_cycle;Signal;HPM_P1;HPM_P2
2021/10/19 00:00:23;;;;;;;;;70.00;57.50;16.50;45.80;;;;;;4862445;29;8793;-56
2021/10/19 00:02:49;;;;;;;;;67.75;54.75;16.50;45.70;;;;;;4862386;29;8793;-58
2021/10/19 00:05:15;;;;;;;;;69.00;56.75;16.50;45.60;;;;;;4862495;29;8908;-57
2021/10/19 00:07:42;;;;;;;;;68.50;55.25;16.50;45.60;;;;;;4862320;29;8939;-59
2021/10/19 00:10:09;;;;;;;;;71.25;58.50;16.50;45.60;;;;;;4862302;29;8805;-58
2021/10/19 00:12:35;;;;;;;;;68.00;56.25;16.50;45.50;;;;;;4862044;29;8825;-60
2021/10/19 00:15:01;;;;;;;;;68.50;56.50;16.50;45.60;;;;;;4861522;29;9479;-58
2021/10/19 00:17:27;;;;;;;;;68.75;56.00;16.60;45.50;;;;;;4861847;29;8805;-59
2021/10/19 00:19:53;;;;;;;;;69.50;55.00;16.50;45.40;;;;;;4862322;29;8882;-58
2021/10/19 00:22:18;;;;;;;;;65.25;54.75;16.40;45.70;;;;;;4862458;29;9040;-59
2021/10/19 00:24:44;;;;;;;;;70.75;59.00;16.40;45.60;;;;;;4861947;29;8805;-58
2021/10/19 00:27:11;;;;;;;;;64.25;54.00;16.20;45.90;;;;;;4861485;29;8821;-59
2021/10/19 00:29:36;;;;;;;;;65.25;54.25;16.20;46.10;;;;;;4861410;29;9445;-58
2021/10/19 00:32:02;;;;;;;;;67.00;54.50;16.30;46.00;;;;;;4861963;29;9014;-58
2021/10/19 00:34:30;;;;;;;;;67.75;53.50;16.30;46.00;;;;;;4862231;29;8838;-58
2021/10/19 00:36:56;;;;;;;;;65.75;54.75;16.30;46.00;;;;;;4862003;29;9603;-59
2021/10/19 00:39:22;;;;;;;;;67.75;54.75;16.30;46.00;;;;;;4861891;29;8983;-57
2021/10/19 00:41:48;;;;;;;;;63.00;52.00;16.30;46.10;;;;;;4861853;29;8939;-58
2021/10/19 00:44:14;;;;;;;;;65.00;53.25;16.20;46.10;;;;;;4862079;29;8904;-57
2021/10/19 00:46:42;;;;;;;;;67.75;55.50;16.20;46.10;;;;;;4862014;29;9581;-59
2021/10/19 00:49:08;;;;;;;;;66.00;53.00;16.10;46.20;;;;;;4862094;29;8794;-57
2021/10/19 00:51:35;;;;;;;;;62.00;52.00;15.90;46.70;;;;;;4862104;29;9608;-57
2021/10/19 00:54:01;;;;;;;;;63.75;52.75;16.00;46.80;;;;;;4861820;29;8893;-59
2021/10/19 00:56:26;;;;;;;;;63.25;52.50;16.00;46.80;;;;;;4861718;29;8941;-57
2021/10/19 00:58:53;;;;;;;;;68.00;56.25;15.90;46.70;;;;;;4861789;29;8802;-59
2021/10/19 01:01:19;;;;;;;;;68.75;56.75;15.90;46.90;;;;;;4861840;29;8908;-58
2021/10/19 01:03:45;;;;;;;;;69.25;57.00;16.00;47.00;;;;;;4864093;29;8920;-61
2021/10/19 01:06:13;;;;;;;;;67.00;55.25;16.00;46.70;;;;;;4865727;29;8960;-58
2021/10/19 01:08:39;;;;;;;;;60.00;50.50;16.10;46.60;;;;;;4865391;29;8825;-60
2021/10/19 01:11:06;;;;;;;;;48.00;40.75;16.10;46.50;;;;;;4865170;29;8806;-60
2021/10/19 01:13:33;;;;;;;;;65.75;53.75;16.00;46.60;;;;;;4865276;29;8809;-59
2021/10/19 01:16:07;;;;;;;;;64.50;53.75;16.10;46.50;;;;;;4865503;29;8868;-58
2021/10/19 01:18:34;;;;;;;;;68.50;55.75;16.10;46.40;;;;;;4865499;29;8785;-60
2021/10/19 01:21:01;;;;;;;;;69.00;57.00;16.10;46.40;;;;;;4865153;29;8833;-57
2021/10/19 01:23:27;;;;;;;;;64.50;53.75;15.90;46.70;;;;;;4865117;29;8813;-58
2021/10/19 01:25:53;;;;;;;;;65.50;54.25;15.90;46.90;;;;;;4865105;29;8805;-57
2021/10/19 01:28:19;;;;;;;;;65.25;55.00;15.90;47.00;;;;;;4865092;29;8806;-59
2021/10/19 01:30:47;;;;;;;;;69.00;56.50;16.00;46.70;;;;;;4865041;29;8877;-60
2021/10/19 01:33:13;;;;;;;;;67.00;55.00;15.90;46.80;;;;;;4864933;29;8782;-59
2021/10/19 01:35:42;;;;;;;;;63.75;53.25;15.90;46.90;;;;;;4865026;29;9556;-59
2021/10/19 01:38:12;;;;;;;;;64.50;53.75;15.90;47.20;;;;;;4864906;29;8786;-59
2021/10/19 01:40:38;;;;;;;;;64.75;53.75;15.90;47.00;;;;;;4864795;29;8828;-59
2021/10/19 01:43:13;;;;;;;;;64.75;54.00;16.00;46.90;;;;;;4864915;29;8790;-59
2021/10/19 01:45:39;;;;;;;;;64.50;53.50;16.00;47.00;;;;;;4865023;29;8826;-59
2021/10/19 01:48:06;;;;;;;;;67.00;55.00;15.90;47.10;;;;;;4864802;29;8804;-58
2021/10/19 01:50:32;;;;;;;;;61.00;51.00;15.80;47.30;;;;;;4864825;29;9448;-59
2021/10/19 01:52:58;;;;;;;;;62.00;52.00;15.80;47.60;;;;;;4864587;29;8813;-58
2021/10/19 01:55:24;;;;;;;;;65.25;55.00;15.70;47.70;;;;;;4864709;29;8933;-60
2021/10/19 01:57:50;;;;;;;;;65.75;54.00;15.70;47.80;;;;;;4864521;29;8881;-59
2021/10/19 02:00:16;;;;;;;;;65.50;54.00;15.60;48.20;;;;;;4864742;29;8797;-59
2021/10/19 02:02:42;;;;;;;;;65.25;54.00;15.60;48.50;;;;;;4864553;29;9479;-57
2021/10/19 02:05:09;;;;;;;;;64.75;53.25;15.70;48.40;;;;;;4864367;29;8816;-57
2021/10/19 02:07:36;;;;;;;;;63.00;53.00;15.70;48.20;;;;;;4864629;29;8809;-59
2021/10/19 02:10:03;;;;;;;;;63.50;52.50;15.60;48.40;;;;;;4864263;29;8817;-57
2021/10/19 02:12:29;;;;;;;;;62.75;52.50;15.60;48.30;;;;;;4864203;29;8849;-59
2021/10/19 02:14:55;;;;;;;;;62.25;52.00;15.60;48.60;;;;;;4863223;29;8831;-58
2021/10/19 02:17:20;;;;;;;;;61.00;51.00;15.60;48.70;;;;;;4864275;29;8770;-59
2021/10/19 02:19:46;;;;;;;;;63.75;53.00;15.70;48.40;;;;;;4864242;29;8905;-57
2021/10/19 02:22:12;;;;;;;;;58.75;49.75;15.70;48.30;;;;;;4864513;29;8845;-58
2021/10/19 02:24:38;;;;;;;;;63.25;52.75;15.70;48.50;;;;;;4863160;29;8823;-58
2021/10/19 02:27:04;;;;;;;;;58.25;48.75;15.80;48.20;;;;;;4864071;29;8893;-58
2021/10/19 02:29:30;;;;;;;;;66.75;54.00;15.90;48.20;;;;;;4864038;29;8885;-58
2021/10/19 02:31:55;;;;;;;;;63.75;53.50;15.90;48.00;;;;;;4864296;29;8802;-58
2021/10/19 02:34:22;;;;;;;;;62.00;52.00;15.90;48.00;;;;;;4863923;29;8801;-59
2021/10/19 02:36:48;;;;;;;;;65.75;54.50;15.80;48.20;;;;;;4863893;29;8860;-59
2021/10/19 02:39:15;;;;;;;;;65.00;53.25;15.80;48.40;;;;;;4863846;29;8818;-60
2021/10/19 02:41:41;;;;;;;;;60.50;50.50;15.80;48.50;;;;;;4864139;29;8914;-57
2021/10/19 02:44:07;;;;;;;;;65.75;54.00;15.80;48.30;;;;;;4863697;29;8813;-58
2021/10/19 02:46:33;;;;;;;;;61.75;51.75;15.80;48.30;;;;;;4863957;29;8801;-58
2021/10/19 02:49:01;;;;;;;;;65.75;54.25;15.90;48.30;;;;;;4864193;29;8797;-57
2021/10/19 02:51:27;;;;;;;;;61.25;51.25;15.80;48.40;;;;;;4863674;29;8829;-60
2021/10/19 02:53:56;;;;;;;;;60.75;49.75;15.80;48.60;;;;;;4863789;29;8801;-58
2021/10/19 02:56:22;;;;;;;;;61.25;52.00;15.90;48.50;;;;;;4863467;29;8921;-59
2021/10/19 02:58:49;;;;;;;;;59.75;50.00;15.90;48.50;;;;;;4862558;29;8825;-59
2021/10/19 03:01:15;;;;;;;;;62.00;51.75;15.90;48.40;;;;;;4863492;29;8908;-60
2021/10/19 03:03:41;;;;;;;;;61.75;50.75;15.90;48.30;;;;;;4863456;29;8778;-58
2021/10/19 03:06:07;;;;;;;;;58.25;50.00;15.90;48.30;;;;;;4863311;29;8908;-59
2021/10/19 03:08:33;;;;;;;;;61.75;51.75;15.90;48.20;;;;;;4863293;29;8802;-58
2021/10/19 03:10:59;;;;;;;;;61.00;51.25;16.00;48.20;;;;;;4863231;29;8797;-57
2021/10/19 03:13:25;;;;;;;;;64.00;53.00;15.90;48.10;;;;;;4863439;29;8813;-58
2021/10/19 03:15:51;;;;;;;;;61.00;51.00;16.00;48.10;;;;;;4863078;29;8833;-58
2021/10/19 03:18:17;;;;;;;;;63.00;52.00;15.90;48.10;;;;;;4863471;29;8808;-57
2021/10/19 03:20:43;;;;;;;;;61.50;51.00;16.00;48.10;;;;;;4863032;29;8838;-56
2021/10/19 03:23:10;;;;;;;;;63.25;52.75;16.00;48.00;;;;;;4863083;29;8881;-58
2021/10/19 03:25:36;;;;;;;;;59.50;50.00;15.90;48.20;;;;;;4862820;29;8798;-58
2021/10/19 03:28:01;;;;;;;;;59.75;50.25;15.70;48.50;;;;;;4862933;29;8900;-58
2021/10/19 03:30:27;;;;;;;;;52.25;45.25;15.70;48.70;;;;;;4863148;29;8856;-58
2021/10/19 03:32:53;;;;;;;;;57.25;48.75;15.80;48.60;;;;;;4862916;29;8806;-58
2021/10/19 03:35:19;;;;;;;;;56.75;48.75;15.70;48.50;;;;;;4862947;29;8853;-58
2021/10/19 03:37:45;;;;;;;;;63.25;52.25;15.70;48.60;;;;;;4862811;29;8820;-58
2021/10/19 03:40:11;;;;;;;;;63.25;52.75;15.60;48.80;;;;;;4862445;29;8833;-57
2021/10/19 03:42:41;;;;;;;;;62.50;52.50;15.70;48.70;;;;;;4862750;29;8817;-57
2021/10/19 03:45:10;;;;;;;;;60.50;51.50;15.60;48.80;;;;;;4862426;29;8813;-60
2021/10/19 03:47:36;;;;;;;;;61.50;51.00;15.60;48.80;;;;;;4862921;29;9460;-59
2021/10/19 03:50:03;;;;;;;;;60.25;51.00;15.60;49.00;;;;;;4862500;29;8812;-57
2021/10/19 03:52:29;;;;;;;;;63.25;53.00;15.60;48.80;;;;;;4862461;29;8857;-58
2021/10/19 03:54:55;;;;;;;;;58.75;49.25;15.50;48.90;;;;;;4862620;29;8794;-60
2021/10/19 03:57:21;;;;;;;;;53.25;46.00;15.40;48.90;;;;;;4862591;29;8886;-57
2021/10/19 03:59:47;;;;;;;;;60.75;51.25;15.50;49.00;;;;;;4862735;29;8797;-57
2021/10/19 04:02:13;;;;;;;;;62.25;51.50;15.60;48.70;;;;;;4862359;29;8790;-58
2021/10/19 04:04:38;;;;;;;;;66.00;55.00;15.50;48.80;;;;;;4862373;29;8944;-55
2021/10/19 04:07:04;;;;;;;;;58.00;49.00;15.40;48.90;;;;;;4862397;29;8817;-55
2021/10/19 04:09:30;;;;;;;;;62.50;52.25;15.40;48.90;;;;;;4862297;29;8805;-57
2021/10/19 04:11:56;;;;;;;;;58.25;49.25;15.40;48.90;;;;;;4862073;29;8859;-58
2021/10/19 04:14:22;;;;;;;;;58.00;50.00;15.40;49.10;;;;;;4862215;29;8805;-56
2021/10/19 04:16:48;;;;;;;;;61.75;51.75;15.20;49.20;;;;;;4862088;29;8829;-58
2021/10/19 04:19:14;;;;;;;;;62.25;52.00;15.30;49.00;;;;;;4862343;29;8808;-57
2021/10/19 04:21:45;;;;;;;;;63.00;53.00;15.30;49.10;;;;;;4862254;29;8836;-55
2021/10/19 04:24:11;;;;;;;;;64.25;54.00;15.30;49.40;;;;;;4862167;29;8813;-57
2021/10/19 04:26:37;;;;;;;;;63.25;52.75;15.20;49.20;;;;;;4862342;29;9476;-55
2021/10/19 04:29:04;;;;;;;;;64.75;54.50;15.30;49.00;;;;;;4862075;29;8812;-57
2021/10/19 04:31:31;;;;;;;;;63.50;52.50;15.40;48.90;;;;;;4861911;29;8785;-58
2021/10/19 04:33:59;;;;;;;;;61.75;52.75;15.40;48.70;;;;;;4862210;29;8801;-56
2021/10/19 04:36:26;;;;;;;;;61.75;51.75;15.40;48.50;;;;;;4861736;29;8933;-58
2021/10/19 04:38:52;;;;;;;;;63.00;52.00;15.30;48.70;;;;;;4861203;29;8870;-56
2021/10/19 04:41:18;;;;;;;;;67.25;55.75;15.40;48.70;;;;;;4861727;29;8793;-55
2021/10/19 04:43:44;;;;;;;;;68.25;56.00;15.40;48.50;;;;;;4861735;29;8809;-66
2021/10/19 04:46:10;;;;;;;;;71.00;58.50;15.40;48.40;;;;;;4861873;29;8809;-58
2021/10/19 04:48:36;;;;;;;;;67.00;55.50;15.40;48.40;;;;;;4860888;29;8813;-57
2021/10/19 04:51:02;;;;;;;;;71.25;59.00;15.40;48.40;;;;;;4861657;29;8832;-55
2021/10/19 04:53:28;;;;;;;;;68.00;55.75;15.40;48.40;;;;;;4861837;29;8821;-57
2021/10/19 04:55:54;;;;;;;;;67.00;55.00;15.40;48.30;;;;;;4861534;29;9686;-55
2021/10/19 04:58:20;;;;;;;;;66.00;55.50;15.50;48.00;;;;;;4861751;29;8793;-58
2021/10/19 05:00:47;;;;;;;;;65.50;54.75;15.50;48.00;;;;;;4861459;29;8807;-62
2021/10/19 05:03:15;;;;;;;;;59.25;49.25;15.50;47.80;;;;;;4861685;29;8869;-58
2021/10/19 05:05:43;;;;;;;;;61.25;51.25;15.40;48.00;;;;;;4861287;29;8809;-61
2021/10/19 05:08:08;;;;;;;;;64.00;51.75;15.40;47.70;;;;;;4860559;29;8809;-58
2021/10/19 05:10:34;;;;;;;;;61.50;51.25;15.50;47.90;;;;;;4860765;29;8794;-60
2021/10/19 05:13:00;;;;;;;;;60.25;51.25;15.30;48.10;;;;;;4860611;29;8846;-59
2021/10/19 05:15:26;;;;;;;;;56.25;48.00;15.20;48.20;;;;;;4860021;29;8838;-57
2021/10/19 05:17:52;;;;;;;;;58.00;50.00;15.20;48.20;;;;;;4860298;29;8805;-57
2021/10/19 05:20:18;;;;;;;;;58.25;49.25;15.20;48.30;;;;;;4860349;29;8920;-58
2021/10/19 05:22:44;;;;;;;;;59.25;49.75;15.30;48.40;;;;;;4861105;29;8871;-59
2021/10/19 05:25:12;;;;;;;;;59.75;51.25;15.20;48.50;;;;;;4861483;29;8808;-60
2021/10/19 05:27:38;;;;;;;;;62.75;50.00;15.10;48.60;;;;;;4861836;29;8878;-57
2021/10/19 05:30:05;;;;;;;;;61.00;51.00;15.30;48.50;;;;;;4861407;29;8797;-56
2021/10/19 05:32:31;;;;;;;;;62.75;52.50;15.30;48.40;;;;;;4860404;29;8916;-58
2021/10/19 05:34:57;;;;;;;;;60.00;50.25;15.30;49.30;;;;;;4861152;29;8912;-58
2021/10/19 05:37:23;;;;;;;;;64.50;53.75;15.20;48.30;;;;;;4861004;29;8853;-59
2021/10/19 05:39:48;;;;;;;;;65.50;54.50;15.20;49.40;;;;;;4861212;29;8817;-56
2021/10/19 05:42:14;;;;;;;;;63.00;53.00;15.30;48.30;;;;;;4861064;29;9424;-56
2021/10/19 05:44:40;;;;;;;;;69.50;57.25;15.30;48.20;;;;;;4861468;29;8960;-57
2021/10/19 05:47:06;;;;;;;;;74.50;62.50;15.30;48.20;;;;;;4861391;29;9468;-59
2021/10/19 05:49:33;;;;;;;;;79.00;68.75;15.40;48.00;;;;;;4861874;29;8809;-57
2021/10/19 05:51:59;;;;;;;;;71.00;58.25;15.30;48.20;;;;;;4864588;29;8861;-58
2021/10/19 05:54:26;;;;;;;;;75.25;60.25;15.20;49.20;;;;;;4864809;29;8832;-59
2021/10/19 05:56:53;;;;;;;;;77.00;65.75;15.30;49.10;;;;;;4864778;29;8932;-61
2021/10/19 05:59:19;;;;;;;;;71.00;58.00;15.40;48.80;;;;;;4864583;29;8817;-61
2021/10/19 06:01:46;;;;;;;;;71.00;58.00;15.40;48.50;;;;;;4864579;29;8805;-59
2021/10/19 06:04:11;;;;;;;;;67.25;55.25;15.40;48.30;;;;;;4864548;29;8877;-60
2021/10/19 06:06:37;;;;;;;;;73.00;59.50;15.30;48.30;;;;;;4864554;29;8810;-61
2021/10/19 06:09:04;;;;;;;;;65.00;54.00;15.20;48.80;;;;;;4864410;29;9037;-65
2021/10/19 06:11:30;;;;;;;;;73.00;60.00;15.20;49.40;;;;;;4864390;29;8821;-64
2021/10/19 06:13:56;;;;;;;;;63.50;53.25;15.20;48.90;;;;;;4864410;29;8927;-65
2021/10/19 06:16:22;;;;;;;;;73.00;59.00;15.30;48.40;;;;;;4864237;29;8845;-65
2021/10/19 06:18:47;;;;;;;;;70.50;57.75;15.40;48.20;;;;;;4863394;29;8813;-65
2021/10/19 06:21:14;;;;;;;;;75.25;61.50;15.50;47.80;;;;;;4864282;29;9678;-66
2021/10/19 06:23:40;;;;;;;;;68.50;56.75;15.60;47.70;;;;;;4863247;29;8820;-64
2021/10/19 06:26:06;;;;;;;;;71.75;58.25;15.60;47.60;;;;;;4863670;29;8904;-62
2021/10/19 06:28:32;;;;;;;;;67.25;55.50;15.60;48.00;;;;;;4863692;29;8813;-64
2021/10/19 06:30:58;;;;;;;;;74.75;59.25;15.70;47.70;;;;;;4864074;29;9504;-65
2021/10/19 06:33:24;;;;;;;;;69.25;57.25;15.70;47.60;;;;;;4864078;29;8854;-65
2021/10/19 06:35:50;;;;;;;;;67.50;55.50;15.70;47.60;;;;;;4863926;29;8855;-65
2021/10/19 06:38:16;;;;;;;;;66.25;55.00;15.80;47.70;;;;;;4864127;29;8809;-63
2021/10/19 06:40:42;;;;;;;;;65.25;54.25;15.80;47.60;;;;;;4863952;29;8816;-65
2021/10/19 06:43:09;;;;;;;;;64.75;53.00;15.90;47.60;;;;;;4863897;29;9222;-63
2021/10/19 06:45:35;;;;;;;;;62.25;51.75;15.90;47.50;;;;;;4864054;29;8806;-63
2021/10/19 06:48:01;;;;;;;;;57.50;49.00;15.90;47.40;;;;;;4863705;29;8820;-63
2021/10/19 06:50:28;;;;;;;;;53.50;45.75;15.90;47.60;;;;;;4863906;29;8813;-63
2021/10/19 06:52:53;;;;;;;;;56.00;47.75;16.00;47.50;;;;;;4863717;29;8793;-64
2021/10/19 06:55:22;;;;;;;;;47.00;40.75;16.00;47.50;;;;;;4863636;29;8801;-63
2021/10/19 06:57:48;;;;;;;;;45.25;40.00;16.00;47.70;;;;;;4863546;29;8809;-63
2021/10/19 07:00:16;;;;;;;;;47.75;42.50;16.10;47.60;;;;;;4863311;29;8881;-64
2021/10/19 07:02:43;;;;;;;;;50.25;42.75;16.20;47.40;;;;;;4863354;29;8797;-63
2021/10/19 07:05:09;;;;;;;;;52.00;45.00;16.10;47.20;;;;;;4863411;29;8809;-63
2021/10/19 07:07:34;;;;;;;;;49.50;42.50;16.10;47.30;;;;;;4863458;29;8806;-63
2021/10/19 07:10:04;;;;;;;;;53.50;45.50;16.10;47.40;;;;;;4863383;29;8916;-63
2021/10/19 07:12:30;;;;;;;;;49.75;42.50;16.20;47.70;;;;;;4863167;29;8836;-63
2021/10/19 07:14:56;;;;;;;;;54.25;45.75;16.30;47.20;;;;;;4863228;29;8790;-64
2021/10/19 07:17:21;;;;;;;;;50.50;43.25;16.40;46.90;;;;;;4863392;29;8845;-63
2021/10/19 07:19:47;;;;;;;;;46.50;40.75;16.30;46.80;;;;;;4863185;29;8801;-63
2021/10/19 07:22:14;;;;;;;;;48.50;42.00;16.30;46.50;;;;;;4863741;29;8841;-64
2021/10/19 07:24:40;;;;;;;;;47.25;41.75;16.50;46.40;;;;;;4863382;29;9492;-62
2021/10/19 07:27:07;;;;;;;;;43.50;38.50;16.50;46.00;;;;;;4863338;29;8920;-63
2021/10/19 07:29:33;;;;;;;;;46.00;40.75;16.60;45.70;;;;;;4863052;29;8806;-60
2021/10/19 07:31:58;;;;;;;;;42.50;39.00;16.60;45.80;;;;;;4862840;29;8852;-60
2021/10/19 07:34:24;;;;;;;;;47.00;40.25;16.60;45.90;;;;;;4862898;29;8801;-63
2021/10/19 07:36:53;;;;;;;;;39.25;36.25;16.70;46.00;;;;;;4862879;29;8841;-62
2021/10/19 07:39:19;;;;;;;;;40.75;37.25;16.70;45.60;;;;;;4862908;29;9021;-62
2021/10/19 07:41:45;;;;;;;;;45.50;39.75;16.80;45.70;;;;;;4862775;29;8813;-62
2021/10/19 07:44:10;;;;;;;;;37.50;35.00;16.90;45.60;;;;;;4862859;29;8793;-62
2021/10/19 07:46:36;;;;;;;;;45.25;39.75;16.90;45.60;;;;;;4862951;29;8793;-62
2021/10/19 07:49:03;;;;;;;;;43.75;38.50;16.90;45.60;;;;;;4862733;29;8932;-61
2021/10/19 07:51:29;;;;;;;;;45.75;40.00;16.90;45.80;;;;;;4862915;29;8849;-61
2021/10/19 07:53:55;;;;;;;;;44.00;38.25;17.10;45.60;;;;;;4862510;29;9432;-62
2021/10/19 07:56:21;;;;;;;;;47.75;41.00;17.30;45.50;;;;;;4862743;29;8856;-61
2021/10/19 07:58:48;;;;;;;;;47.25;41.00;17.30;45.10;;;;;;4862798;29;9445;-62
2021/10/19 08:01:14;;;;;;;;;49.75;42.00;17.40;44.70;;;;;;4862425;29;8885;-62
2021/10/19 08:03:40;;;;;;;;;44.75;40.00;17.50;44.70;;;;;;4862338;29;8789;-62
2021/10/19 08:06:05;;;;;;;;;42.75;36.75;17.60;44.20;;;;;;4862665;29;8808;-63
2021/10/19 08:08:32;;;;;;;;;38.00;35.75;17.60;44.00;;;;;;4862576;29;8790;-62
2021/10/19 08:10:57;;;;;;;;;39.50;35.75;17.70;43.40;;;;;;4862063;29;8820;-62
2021/10/19 08:13:23;;;;;;;;;49.75;43.75;17.80;43.40;;;;;;4861338;29;8813;-63
2021/10/19 08:15:49;;;;;;;;;43.75;37.50;17.80;43.40;;;;;;4862329;29;8859;-63
2021/10/19 08:18:15;;;;;;;;;41.75;38.00;17.90;43.10;;;;;;4862088;29;8797;-62
2021/10/19 08:20:41;;;;;;;;;41.25;36.50;17.90;42.90;;;;;;4862127;29;8968;-64
2021/10/19 08:23:08;;;;;;;;;36.75;32.75;18.00;43.00;;;;;;4861263;29;8904;-62
2021/10/19 08:25:35;;;;;;;;;42.00;37.25;18.00;43.20;;;;;;4862084;29;8822;-65
2021/10/19 08:28:00;;;;;;;;;38.67;35.67;18.10;43.30;;;;;;4862176;29;8810;-61
2021/10/19 08:30:26;;;;;;;;;39.67;35.67;18.00;42.40;;;;;;4862017;29;9437;-62
2021/10/19 08:32:53;;;;;;;;;35.75;34.00;18.10;42.10;;;;;;4862093;29;8790;-61
2021/10/19 08:35:22;;;;;;;;;33.00;33.00;18.10;42.30;;;;;;4861868;29;8836;-61
2021/10/19 08:37:49;;;;;;;;;35.25;33.50;18.20;42.00;;;;;;4861981;29;8790;-63
2021/10/19 08:40:16;;;;;;;;;39.75;36.50;18.20;42.00;;;;;;4861979;29;8810;-61
2021/10/19 08:42:47;;;;;;;;;35.75;34.75;18.30;42.30;;;;;;4861801;29;8805;-61
2021/10/19 08:45:15;;;;;;;;;38.50;35.50;18.30;41.90;;;;;;4861933;29;8793;-60
2021/10/19 08:47:43;;;;;;;;;34.00;33.00;18.30;41.90;;;;;;4861776;29;8821;-61
2021/10/19 08:50:10;;;;;;;;;38.75;35.00;18.30;42.00;;;;;;4861995;29;8809;-61
2021/10/19 08:52:37;;;;;;;;;36.50;33.25;18.40;41.80;;;;;;4861093;29;8952;-60
2021/10/19 08:55:03;;;;;;;;;41.25;37.00;18.50;41.80;;;;;;4861681;29;8790;-62
2021/10/19 08:57:29;;;;;;;;;36.00;33.75;18.60;42.00;;;;;;4861754;29;8865;-60
2021/10/19 08:59:55;;;;;;;;;39.50;35.50;18.70;41.80;;;;;;4861312;29;8810;-60
2021/10/19 09:02:35;;;;;;;;;25.33;25.33;18.60;41.70;;;;;;4861421;29;8789;-61
2021/10/19 09:05:02;;;;;;;;;36.00;33.00;18.70;41.60;;;;;;4861415;29;8809;-61
2021/10/19 09:07:28;;;;;;;;;37.50;34.50;18.90;41.50;;;;;;4861352;29;8813;-61
2021/10/19 09:09:54;;;;;;;;;42.00;37.00;19.00;41.70;;;;;;4861008;29;8805;-61
2021/10/19 09:12:24;;;;;;;;;41.75;37.25;19.00;41.90;;;;;;4860971;29;8829;-61
2021/10/19 09:14:50;;;;;;;;;35.75;33.75;19.00;41.50;;;;;;4861463;29;8809;-61
2021/10/19 09:17:16;;;;;;;;;35.67;34.00;19.10;40.50;;;;;;4861812;29;8849;-62
2021/10/19 09:19:44;;;;;;;;;40.00;35.25;19.20;39.50;;;;;;4861900;29;8900;-62
2021/10/19 09:22:14;;;;;;;;;37.25;34.75;19.20;39.80;;;;;;4861563;29;8980;-62
2021/10/19 09:24:42;;;;;;;;;43.75;38.75;19.40;39.90;;;;;;4863632;29;8797;-62
2021/10/19 09:27:15;;;;;;;;;47.50;40.25;19.30;39.70;;;;;;4864854;29;8793;-63
2021/10/19 09:29:44;;;;;;;;;40.25;36.25;19.40;39.80;;;;;;4865131;29;8880;-63
2021/10/19 09:32:12;;;;;;;;;42.00;37.00;19.50;39.80;;;;;;4865137;29;9492;-63
2021/10/19 09:34:39;;;;;;;;;42.50;38.25;19.60;39.70;;;;;;4865183;29;8813;-62
2021/10/19 09:37:07;;;;;;;;;35.00;33.00;19.70;39.30;;;;;;4864862;29;8875;-62
2021/10/19 09:39:36;;;;;;;;;35.00;34.00;19.80;37.80;;;;;;4864854;29;8809;-62
2021/10/19 09:42:04;;;;;;;;;43.00;37.75;19.80;37.60;;;;;;4864576;29;8801;-62
2021/10/19 09:44:30;;;;;;;;;39.75;35.75;19.80;38.00;;;;;;4864770;29;8801;-62
2021/10/19 09:46:58;;;;;;;;;39.67;36.67;20.00;38.00;;;;;;4865055;29;8838;-63
2021/10/19 09:49:24;;;;;;;;;42.33;37.33;20.10;37.60;;;;;;4864959;29;8793;-61
2021/10/19 09:51:51;;;;;;;;;37.67;34.67;20.10;37.40;;;;;;4864897;29;8825;-61
2021/10/19 09:54:21;;;;;;;;;30.00;30.00;20.20;37.40;;;;;;4864897;29;9445;-62
2021/10/19 09:56:47;;;;;;;;;35.33;33.67;20.20;35.90;;;;;;4864810;29;8861;-63
2021/10/19 09:59:16;;;;;;;;;35.33;33.33;20.40;35.80;;;;;;4864444;29;8801;-62
2021/10/19 10:01:42;;;;;;;;;40.00;36.00;20.60;36.00;;;;;;4864501;29;8801;-62
2021/10/19 10:04:09;;;;;;;;;36.00;33.00;20.90;35.60;;;;;;4864743;29;9613;-62
2021/10/19 10:06:35;;;;;;;;;35.67;32.00;21.10;35.30;;;;;;4864675;29;8831;-62
2021/10/19 10:09:02;;;;;;;;;40.00;35.67;21.40;35.10;;;;;;4864555;29;9338;-62
2021/10/19 10:11:28;;;;;;;;;32.33;31.33;21.50;34.40;;;;;;4864130;29;8856;-63
2021/10/19 10:14:02;;;;;;;;;33.00;33.00;21.50;33.50;;;;;;4864295;29;8892;-62
2021/10/19 10:16:29;;;;;;;;;28.67;28.67;21.60;33.60;;;;;;4864466;29;8833;-62
2021/10/19 10:18:55;;;;;;;;;35.00;33.00;21.80;33.20;;;;;;4864256;29;8824;-62
2021/10/19 10:21:24;;;;;;;;;33.33;33.33;22.10;33.20;;;;;;4864301;29;8841;-63
2021/10/19 10:24:05;;;;;;;;;33.67;32.67;22.50;32.90;;;;;;4864179;29;8817;-62
2021/10/19 10:26:34;;;;;;;;;31.33;31.33;22.90;32.30;;;;;;4864343;29;8924;-62
2021/10/19 10:29:11;;;;;;;;;32.67;32.67;23.60;32.10;;;;;;4864163;29;8870;-64
2021/10/19 10:31:52;;;;;;;;;32.00;32.00;24.20;29.90;;;;;;4864238;29;8801;-62
2021/10/19 10:34:29;;;;;;;;;32.33;31.67;25.20;29.20;;;;;;4864219;29;8850;-62
2021/10/19 10:37:07;;;;;;;;;28.00;28.00;25.80;28.20;;;;;;4863166;29;8871;-62
2021/10/19 10:39:36;;;;;;;;;28.67;28.67;25.90;27.50;;;;;;4863901;29;8828;-62
2021/10/19 10:42:09;;;;;;;;;29.67;29.67;26.20;27.10;;;;;;4864076;29;8794;-62
2021/10/19 10:44:41;;;;;;;;;29.67;29.67;26.60;27.10;;;;;;4863960;29;9531;-63
2021/10/19 10:47:08;;;;;;;;;29.67;28.33;26.70;26.10;;;;;;4863998;29;8805;-63
2021/10/19 10:49:35;;;;;;;;;34.67;33.33;26.90;26.20;;;;;;4863924;29;8793;-63
2021/10/19 10:52:12;;;;;;;;;28.00;28.00;27.20;25.30;;;;;;4863891;29;8840;-63
2021/10/19 10:54:48;;;;;;;;;24.67;24.67;27.70;25.20;;;;;;4863913;29;9643;-63
2021/10/19 10:57:14;;;;;;;;;29.00;29.00;28.00;24.70;;;;;;4863541;29;8869;-63
2021/10/19 10:59:40;;;;;;;;;28.67;28.67;28.70;24.20;;;;;;4863570;29;8789;-63
2021/10/19 11:02:10;;;;;;;;;24.67;24.67;29.20;23.80;;;;;;4863696;29;8824;-65
2021/10/19 11:04:49;;;;;;;;;29.00;29.00;29.70;23.80;;;;;;4863602;29;9659;-63
2021/10/19 11:07:26;;;;;;;;;27.33;27.33;30.00;23.50;;;;;;4863723;29;9480;-63
2021/10/19 11:09:52;;;;;;;;;29.67;28.67;30.30;23.50;;;;;;4863188;29;8817;-64
2021/10/19 11:12:19;;;;;;;;;33.67;31.67;30.50;23.00;;;;;;4863031;29;8952;-64
2021/10/19 11:14:45;;;;;;;;;29.00;29.00;30.70;22.40;;;;;;4863362;29;8805;-64
2021/10/19 11:17:11;;;;;;;;;27.33;27.33;31.00;22.10;;;;;;4863054;29;8840;-65
2021/10/19 11:19:37;;;;;;;;;26.00;26.00;31.00;21.40;;;;;;4863105;29;8828;-64
2021/10/19 11:22:06;;;;;;;;;24.00;24.00;31.00;21.00;;;;;;4863363;29;8869;-64
2021/10/19 11:24:35;;;;;;;;;26.67;26.67;31.00;21.10;;;;;;4863131;29;8789;-64
2021/10/19 11:27:03;;;;;;;;;26.67;26.67;30.80;20.90;;;;;;4862969;29;8805;-63
2021/10/19 11:29:33;;;;;;;;;25.00;25.00;30.70;21.40;;;;;;4863239;29;9526;-64
2021/10/19 11:32:00;;;;;;;;;32.00;31.00;30.90;21.00;;;;;;4862840;29;8833;-64
2021/10/19 11:34:26;;;;;;;;;24.67;24.67;31.30;20.60;;;;;;4863025;29;9484;-61
2021/10/19 11:36:53;;;;;;;;;28.33;28.33;31.60;20.70;;;;;;4862459;29;11682;-64
2021/10/19 11:39:19;;;;;;;;;25.33;25.33;32.10;20.20;;;;;;4862783;29;8909;-64
2021/10/19 11:42:03;;;;;;;;;26.00;26.00;32.70;20.40;;;;;;4862490;29;8797;-62
2021/10/19 11:44:35;;;;;;;;;29.00;29.00;33.20;20.10;;;;;;4862068;29;8921;-62
2021/10/19 11:47:02;;;;;;;;;26.67;26.67;33.50;19.60;;;;;;4862395;29;8801;-64
2021/10/19 11:49:41;;;;;;;;;20.67;20.67;33.60;18.80;;;;;;4862450;29;8906;-64
2021/10/19 11:52:07;;;;;;;;;26.00;26.00;33.10;19.10;;;;;;4862826;29;11667;-64
2021/10/19 11:54:35;;;;;;;;;26.33;26.33;32.70;19.50;;;;;;4862693;29;8839;-65
2021/10/19 11:57:04;;;;;;;;;30.67;29.67;32.60;19.80;;;;;;4862546;29;11752;-64
2021/10/19 11:59:42;;;;;;;;;30.00;30.00;33.00;19.40;;;;;;4862368;29;8789;-64
2021/10/19 12:02:08;;;;;;;;;24.00;24.00;33.30;19.10;;;;;;4862384;29;8785;-64
2021/10/19 12:04:40;;;;;;;;;27.00;27.00;33.60;19.20;;;;;;4862641;29;8921;-64
2021/10/19 12:07:06;;;;;;;;;28.00;28.00;33.70;18.90;;;;;;4862519;29;9492;-64
2021/10/19 12:09:31;;;;;;;;;25.67;25.67;33.70;18.40;;;;;;4862312;29;8786;-62
2021/10/19 12:12:01;;;;;;;;;25.67;25.00;33.60;18.70;;;;;;4862013;29;8838;-63
2021/10/19 12:14:42;;;;;;;;;26.00;26.00;33.60;18.80;;;;;;4862473;29;8790;-62
2021/10/19 12:17:08;;;;;;;;;24.33;24.33;33.90;18.50;;;;;;4862218;29;11757;-62
2021/10/19 12:19:37;;;;;;;;;24.67;24.67;34.00;18.30;;;;;;4862064;29;8832;-62
2021/10/19 12:22:10;;;;;;;;;27.33;27.33;34.20;18.80;;;;;;4862365;29;9620;-62
2021/10/19 12:24:39;;;;;;;;;26.33;26.33;34.60;19.20;;;;;;4862046;29;11774;-61
2021/10/19 12:27:07;;;;;;;;;26.33;26.33;34.90;18.40;;;;;;4861822;29;8872;-63
2021/10/19 12:29:34;;;;;;;;;27.00;27.00;35.10;17.80;;;;;;4862018;29;8794;-61
2021/10/19 12:32:01;;;;;;;;;25.33;25.33;35.20;17.70;;;;;;4862241;29;9429;-62
2021/10/19 12:34:28;;;;;;;;;30.00;30.00;34.80;17.70;;;;;;4862025;29;11645;-66